Detall de PIREP

Printer-friendly versionPDF version

[2013/07/07 17:22:00]
Flight IATA:CT0003
Pilot Number:012
Company ICAO:CAT
Aircraft Type:C750/F
PAX:4
Departing Airport: LIEA
Destination Airport: LIRA
Alternate Airport:LIRN
Online: VATSIM
Route:MINKA UL5 VALMA
Flight Level:F230
No Slew and time accel
No pause
Crash detect
Detect pilot in Cockpit between each 30 and 45 minutes
17:22 Zero fuel Weight: 22417 Lbs, Fuel Weight: 3179 Lbs
17:22 VATSIM:LIEA 071650Z 34007KT 300V020 CAVOK 29/14 Q1019
17:22 VATSIM:LIRA 071645Z 10004KT 9999 FEW017 FEW018CB SCT080 22/20 Q1018 RETS
17:22 VOICE CATALONIAN
17:24 Parking Brakes off
17:29 Take-off
17:29 Take off Weight: 25513 Lbs
17:29 Wind: 337º @ 007 Knots Heading: 021º
17:29 POS N40º 37´ 44´´ E008º 17´ 20´´
17:29 Gear Up: 147 Knots
17:29 Flaps:4 at 147 Knots
17:29 Flaps:3 at 150 Knots
17:29 Flaps:2 at 164 Knots
17:29 Flaps:0 at 165 Knots
17:34 TOC
17:34 Fuel Weight: 2811Lb
17:44 Wind:343º@021 Knots Heading: 066º Ground Speed: 464 Knots Altitude 23166 ft
17:51 TOD
17:51 Fuel Weight: 2350 Lb
17:59 Wind:048º@013 Knots Heading: 023º Ground Speed: 290 Knots Altitude 10780 ft
18:03 Flaps:2 at 197 Knots
18:05 Flaps:3 at 167 Knots
18:05 Gear Down: 166 Knots
18:05 Flaps:4 at 148 Knots
18:05 Flaps:5 at 129 Knots
18:09 TouchDown:Rate -309 ft/min Speed: 122 Knots
18:09 VATSIM:LIRA 071745Z 08007KT 9999 FEW017 SCT080 22/20 Q1018 RETS
18:09 Land
18:09 Wind:050º@000 Knots
18:09 Heading: 158º
18:09 Flight Duration: 00:40
18:09 Landing Weight: 24587 Lbs
18:09 POS N41º 47´ 33´´ E012º 35´ 45´´
18:09 Parking brakes on
18:09 Block to Block Duration: 00:45
18:09 Final Fuel: 2167 Lbls
18:09 Spent Fuel: 1011 Lbls
18:09 Flight Length: 232 NM
18:09 TOD Land Length: 78 NM

Exportar CSV

Powered by Drupal - Modified by Danger4k